createdAt,value
2022-09-07T00:01:47.847Z,6.37
2022-09-07T00:04:14.931Z,6.25
2022-09-07T00:06:41.869Z,5.82
2022-09-07T00:09:08.828Z,6.20
2022-09-07T00:11:35.825Z,5.78
2022-09-07T00:14:02.781Z,5.55
2022-09-07T00:16:31.018Z,5.75
2022-09-07T00:19:03.237Z,5.85
2022-09-07T00:21:30.899Z,6.07
2022-09-07T00:23:57.937Z,6.35
2022-09-07T00:26:30.339Z,6.28
2022-09-07T00:29:01.911Z,6.82
2022-09-07T00:31:30.223Z,6.47
2022-09-07T00:33:59.809Z,6.03
2022-09-07T00:36:27.231Z,6.43
2022-09-07T00:38:54.345Z,6.45
2022-09-07T00:41:22.395Z,6.50
2022-09-07T00:44:20.147Z,6.65
2022-09-07T00:46:47.243Z,6.50
2022-09-07T00:49:17.484Z,6.03
2022-09-07T00:51:50.543Z,6.75
2022-09-07T00:54:20.098Z,6.40
2022-09-07T00:56:47.625Z,6.50
2022-09-07T00:59:16.537Z,5.97
2022-09-07T01:01:43.945Z,6.78
2022-09-07T01:04:13.783Z,6.68
2022-09-07T01:06:42.633Z,7.20
2022-09-07T01:09:13.201Z,6.47
2022-09-07T01:11:41.096Z,6.37
2022-09-07T01:14:11.872Z,6.80
2022-09-07T01:17:20.622Z,6.75
2022-09-07T01:20:17.326Z,6.70
2022-09-07T01:23:22.027Z,6.62
2022-09-07T01:26:16.854Z,6.62
2022-09-07T01:28:47.526Z,6.30
2022-09-07T01:31:29.061Z,6.78
2022-09-07T01:34:21.917Z,6.53
2022-09-07T01:37:08.369Z,6.47
2022-09-07T01:40:08.264Z,6.40
2022-09-07T01:42:45.140Z,6.20
2022-09-07T01:45:14.496Z,6.55
2022-09-07T01:47:47.890Z,6.68
2022-09-07T01:50:21.950Z,5.82
2022-09-07T01:53:00.547Z,6.20
2022-09-07T01:55:43.779Z,6.37
2022-09-07T01:58:39.845Z,6.62
2022-09-07T02:01:33.386Z,6.85
2022-09-07T02:04:20.622Z,6.43
2022-09-07T02:06:57.001Z,6.75
2022-09-07T02:09:47.774Z,7.00
2022-09-07T02:12:19.301Z,7.32
2022-09-07T02:14:52.541Z,7.35
2022-09-07T02:17:39.761Z,6.90
2022-09-07T02:20:13.620Z,7.20
2022-09-07T02:22:44.477Z,6.62
2022-09-07T02:25:14.805Z,6.82
2022-09-07T02:27:46.000Z,7.20
2022-09-07T02:30:13.673Z,7.35
2022-09-07T02:32:40.695Z,7.25
2022-09-07T02:35:11.007Z,7.15
2022-09-07T02:37:39.120Z,7.40
2022-09-07T02:40:07.183Z,8.30
2022-09-07T02:42:34.857Z,8.43
2022-09-07T02:45:02.861Z,7.97
2022-09-07T02:48:03.441Z,7.87
2022-09-07T02:50:30.877Z,8.27
2022-09-07T02:53:03.708Z,7.82
2022-09-07T02:55:54.067Z,7.05
2022-09-07T02:58:46.734Z,6.32
2022-09-07T03:01:40.957Z,6.45
2022-09-07T03:04:37.259Z,7.12
2022-09-07T03:07:10.151Z,7.68
2022-09-07T03:09:42.488Z,6.93
2022-09-07T03:12:10.025Z,7.10
2022-09-07T03:14:40.197Z,6.68
2022-09-07T03:17:08.085Z,7.72
2022-09-07T03:19:35.036Z,6.90
2022-09-07T03:22:02.457Z,6.93
2022-09-07T03:24:29.688Z,7.43
2022-09-07T03:26:57.533Z,7.25
2022-09-07T03:29:24.511Z,7.65
2022-09-07T03:31:51.516Z,7.28
2022-09-07T03:34:25.659Z,7.37
2022-09-07T03:36:52.657Z,7.10
2022-09-07T03:39:22.811Z,7.90
2022-09-07T03:41:50.483Z,7.07
2022-09-07T03:44:18.434Z,7.60
2022-09-07T03:46:45.481Z,8.18
2022-09-07T03:49:12.403Z,7.12
2022-09-07T03:51:39.676Z,8.13
2022-09-07T03:54:39.593Z,8.40
2022-09-07T03:57:07.237Z,8.65
2022-09-07T03:59:34.371Z,8.15
2022-09-07T04:02:01.533Z,8.60
2022-09-07T04:07:58.715Z,8.52
2022-09-07T04:10:25.635Z,8.07
2022-09-07T04:12:52.536Z,8.48
2022-09-07T04:15:33.178Z,9.82
2022-09-07T04:18:00.964Z,9.68
2022-09-07T04:20:28.379Z,8.05
2022-09-07T04:22:55.274Z,7.00
2022-09-07T04:25:22.212Z,6.62
2022-09-07T04:27:49.188Z,7.78
2022-09-07T04:30:16.109Z,7.28
2022-09-07T04:32:43.056Z,7.60
2022-09-07T04:35:18.236Z,7.80
2022-09-07T04:37:45.461Z,7.90
2022-09-07T04:40:12.721Z,8.50
2022-09-07T04:42:39.679Z,7.22
2022-09-07T04:45:08.865Z,8.48
2022-09-07T04:47:35.807Z,7.85
2022-09-07T04:50:02.776Z,8.27
2022-09-07T04:52:29.745Z,8.93
2022-09-07T04:55:10.549Z,9.90
2022-09-07T04:57:37.659Z,9.93
2022-09-07T05:00:11.655Z,9.10
2022-09-07T05:02:38.845Z,10.30
2022-09-07T05:05:10.930Z,10.02
2022-09-07T05:07:37.877Z,10.32
2022-09-07T05:10:05.253Z,9.40
2022-09-07T05:12:32.173Z,8.77
2022-09-07T05:15:05.991Z,8.30
2022-09-07T05:17:33.019Z,8.80
2022-09-07T05:19:59.926Z,8.57
2022-09-07T05:22:27.003Z,8.23
2022-09-07T05:24:53.911Z,7.45
2022-09-07T05:27:20.848Z,7.97
2022-09-07T05:30:04.295Z,7.05
2022-09-07T05:32:32.514Z,7.55
2022-09-07T05:35:00.473Z,8.68
2022-09-07T05:37:27.367Z,7.87
2022-09-07T05:39:57.085Z,6.87
2022-09-07T05:42:24.176Z,6.68
2022-09-07T05:45:07.225Z,6.78
2022-09-07T05:47:34.383Z,6.93
2022-09-07T05:50:01.290Z,7.47
2022-09-07T05:52:28.969Z,7.35
2022-09-07T05:55:07.765Z,7.60
2022-09-07T05:57:40.301Z,8.30
2022-09-07T06:00:07.592Z,8.60
2022-09-07T06:02:39.087Z,9.05
2022-09-07T06:05:07.825Z,8.88
2022-09-07T06:07:34.781Z,9.00
2022-09-07T06:12:49.402Z,9.07
2022-09-07T06:15:21.504Z,9.77
2022-09-07T06:17:48.990Z,9.20
2022-09-07T06:20:16.282Z,10.00
2022-09-07T06:22:43.228Z,10.55
2022-09-07T06:25:10.173Z,10.48
2022-09-07T06:27:37.189Z,10.75
2022-09-07T06:30:04.878Z,10.18
2022-09-07T06:32:47.108Z,10.32
2022-09-07T06:35:15.123Z,10.27
2022-09-07T06:37:42.679Z,10.07
2022-09-07T06:40:11.107Z,11.00
2022-09-07T06:42:38.885Z,10.60
2022-09-07T06:45:06.389Z,10.48
2022-09-07T06:47:33.380Z,11.32
2022-09-07T06:50:00.666Z,11.50
2022-09-07T06:52:28.229Z,11.12
2022-09-07T06:57:25.185Z,11.15
2022-09-07T06:59:52.130Z,9.73
2022-09-07T07:02:19.115Z,10.55
2022-09-07T07:04:46.865Z,10.90
2022-09-07T07:07:14.488Z,10.38
2022-09-07T07:09:42.085Z,10.55
2022-09-07T07:12:10.208Z,10.15
2022-09-07T07:14:39.725Z,10.35
2022-09-07T07:17:08.637Z,9.82
2022-09-07T07:19:35.581Z,9.25
2022-09-07T07:22:14.515Z,9.20
2022-09-07T07:24:49.450Z,9.45
2022-09-07T07:27:16.786Z,9.98
2022-09-07T07:29:43.776Z,8.95
2022-09-07T07:32:10.686Z,9.45
2022-09-07T07:34:37.804Z,8.88
2022-09-07T07:37:04.770Z,8.63
2022-09-07T07:42:18.661Z,8.77
2022-09-07T07:44:45.603Z,8.52
2022-09-07T07:47:12.529Z,8.20
2022-09-07T07:49:39.441Z,8.90
2022-09-07T07:54:55.512Z,7.62
2022-09-07T07:57:22.407Z,8.13
2022-09-07T07:59:49.694Z,8.68
2022-09-07T08:02:17.536Z,8.63
2022-09-07T08:04:44.807Z,7.68
2022-09-07T08:07:12.316Z,8.32
2022-09-07T08:09:44.538Z,7.90
2022-09-07T08:12:15.099Z,8.57
2022-09-07T08:14:42.128Z,7.82
2022-09-07T08:17:13.370Z,8.70
2022-09-07T08:19:40.644Z,8.52
2022-09-07T08:22:08.908Z,8.38
2022-09-07T08:24:35.825Z,8.70
2022-09-07T08:27:02.745Z,8.13
2022-09-07T08:29:33.580Z,8.27
2022-09-07T08:32:02.178Z,8.88
2022-09-07T08:34:29.101Z,8.63
2022-09-07T08:36:56.010Z,9.82
2022-09-07T08:39:22.841Z,9.48
2022-09-07T08:42:11.301Z,9.50
2022-09-07T08:45:01.083Z,10.25
2022-09-07T08:47:51.822Z,9.93
2022-09-07T08:50:37.637Z,9.27
2022-09-07T08:53:14.706Z,9.13
2022-09-07T08:55:49.741Z,9.93
2022-09-07T08:58:48.071Z,10.80
2022-09-07T09:01:32.866Z,10.13
2022-09-07T09:06:11.581Z,10.88
2022-09-07T09:07:09.323Z,9.57
2022-09-07T09:10:03.857Z,10.95
2022-09-07T09:12:56.782Z,10.40
2022-09-07T09:15:23.735Z,11.30
2022-09-07T09:18:05.440Z,12.20
2022-09-07T09:20:40.670Z,12.02
2022-09-07T09:23:12.906Z,10.25
2022-09-07T09:25:57.770Z,10.13
2022-09-07T09:28:26.591Z,9.48
2022-09-07T09:30:55.918Z,10.45
2022-09-07T09:33:28.016Z,10.40
2022-09-07T09:36:00.386Z,9.35
2022-09-07T09:38:43.697Z,9.95
2022-09-07T09:41:12.380Z,9.10
2022-09-07T09:43:52.507Z,10.38
2022-09-07T09:46:32.700Z,9.98
2022-09-07T09:49:06.508Z,9.73
2022-09-07T09:54:25.601Z,9.07
2022-09-07T09:56:52.981Z,10.05
2022-09-07T10:05:30.823Z,9.98
2022-09-07T10:07:58.282Z,8.20
2022-09-07T10:10:27.536Z,9.18
2022-09-07T10:12:55.364Z,10.70
2022-09-07T10:15:40.113Z,9.70
2022-09-07T10:18:18.950Z,10.25
2022-09-07T10:20:45.803Z,9.00
2022-09-07T10:23:30.507Z,10.02
2022-09-07T10:25:57.352Z,8.07
2022-09-07T10:28:24.895Z,9.70
2022-09-07T10:31:15.321Z,9.48
2022-09-07T10:34:26.120Z,9.57
2022-09-07T10:37:14.144Z,9.30
2022-09-07T10:39:43.328Z,9.23
2022-09-07T10:42:10.246Z,9.43
2022-09-07T10:45:13.004Z,9.30
2022-09-07T10:47:50.521Z,9.35
2022-09-07T10:50:25.559Z,8.95
2022-09-07T10:53:41.939Z,8.80
2022-09-07T10:56:26.580Z,7.30
2022-09-07T10:59:23.269Z,7.95
2022-09-07T11:01:59.697Z,6.95
2022-09-07T11:05:23.847Z,6.62
2022-09-07T11:08:18.487Z,4.40
2022-09-07T11:11:06.068Z,4.80
2022-09-07T11:13:55.477Z,5.22
2022-09-07T11:22:16.335Z,5.60
2022-09-07T11:27:43.885Z,5.62
2022-09-07T11:30:18.970Z,5.53
2022-09-07T11:32:59.085Z,6.15
2022-09-07T11:35:37.865Z,5.80
2022-09-07T11:38:20.829Z,6.20
2022-09-07T11:40:57.818Z,5.70
2022-09-07T11:43:33.167Z,6.30
2022-09-07T11:46:08.067Z,6.07
2022-09-07T11:48:56.567Z,6.32
2022-09-07T11:51:56.583Z,6.07
2022-09-07T11:54:38.813Z,6.30
2022-09-07T11:57:37.320Z,6.50
2022-09-07T12:00:14.824Z,6.45
2022-09-07T12:03:17.222Z,6.18
2022-09-07T12:06:22.663Z,6.68
2022-09-07T12:09:09.291Z,7.22
2022-09-07T12:11:54.699Z,6.93
2022-09-07T12:14:21.552Z,7.07
2022-09-07T12:17:00.562Z,6.95
2022-09-07T12:19:28.303Z,7.50
2022-09-07T12:21:59.868Z,7.18
2022-09-07T12:24:38.298Z,7.00
2022-09-07T12:27:22.076Z,7.18
2022-09-07T12:29:50.608Z,7.00
2022-09-07T12:32:57.135Z,6.85
2022-09-07T12:38:06.856Z,6.97
2022-09-07T12:40:37.415Z,7.30
2022-09-07T12:43:13.423Z,6.45
2022-09-07T12:45:48.256Z,6.32
2022-09-07T12:48:15.127Z,6.80
2022-09-07T12:50:57.077Z,6.25
2022-09-07T12:53:56.977Z,6.85
2022-09-07T12:56:47.439Z,5.78
2022-09-07T12:59:42.905Z,6.60
2022-09-07T13:02:09.805Z,6.25
2022-09-07T13:04:57.987Z,6.22
2022-09-07T13:07:46.798Z,5.93
2022-09-07T13:10:34.390Z,5.30
2022-09-07T13:13:04.227Z,5.80
2022-09-07T13:15:45.298Z,5.72
2022-09-07T13:18:35.395Z,5.97
2022-09-07T13:21:08.363Z,5.55
2022-09-07T13:23:37.871Z,5.03
2022-09-07T13:26:08.054Z,6.03
2022-09-07T13:28:56.299Z,6.00
2022-09-07T13:31:48.590Z,6.35
2022-09-07T13:34:36.188Z,6.50
2022-09-07T13:37:05.551Z,6.47
2022-09-07T13:39:44.645Z,6.40
2022-09-07T13:42:21.932Z,6.75
2022-09-07T13:44:57.495Z,5.87
2022-09-07T13:48:14.055Z,5.72
2022-09-07T13:50:55.197Z,5.62
2022-09-07T13:53:55.443Z,5.40
2022-09-07T13:56:35.225Z,5.78
2022-09-07T13:59:17.174Z,5.87
2022-09-07T14:01:47.364Z,6.28
2022-09-07T14:04:31.057Z,6.05
2022-09-07T14:07:13.829Z,5.55
2022-09-07T14:09:41.274Z,6.62
2022-09-07T14:12:22.080Z,6.55
2022-09-07T14:15:28.890Z,6.03
2022-09-07T14:18:04.374Z,6.55
2022-09-07T14:20:32.665Z,6.43
2022-09-07T14:22:59.955Z,6.15
2022-09-07T14:25:27.206Z,6.65
2022-09-07T14:27:54.629Z,6.65
2022-09-07T14:30:33.447Z,6.50
2022-09-07T14:33:13.914Z,7.15
2022-09-07T14:35:41.755Z,6.95
2022-09-07T14:41:15.132Z,7.03
2022-09-07T14:43:55.238Z,7.07
2022-09-07T14:46:26.134Z,7.18
2022-09-07T14:48:57.814Z,7.50
2022-09-07T14:51:36.073Z,7.43
2022-09-07T14:54:30.253Z,8.32
2022-09-07T14:57:03.794Z,7.95
2022-09-07T14:59:47.379Z,7.25
2022-09-07T15:02:26.523Z,7.75
2022-09-07T15:05:14.992Z,7.95
2022-09-07T15:07:50.672Z,8.10
2022-09-07T15:10:23.870Z,7.60
2022-09-07T15:12:55.961Z,8.48
2022-09-07T15:15:29.845Z,8.20
2022-09-07T15:18:05.825Z,8.50
2022-09-07T15:20:37.186Z,8.55
2022-09-07T15:23:06.383Z,8.05
2022-09-07T15:25:33.376Z,8.30
2022-09-07T15:28:00.254Z,7.82
2022-09-07T15:30:27.517Z,8.05
2022-09-07T15:32:56.869Z,8.00
2022-09-07T15:35:24.211Z,8.25
2022-09-07T15:38:59.466Z,7.82
2022-09-07T15:43:29.684Z,8.55
2022-09-07T15:45:56.737Z,8.23
2022-09-07T15:48:27.387Z,8.48
2022-09-07T15:51:02.512Z,13.50
2022-09-07T15:56:17.246Z,9.75
2022-09-07T15:58:46.884Z,8.73
2022-09-07T16:04:01.659Z,10.60
2022-09-07T16:06:31.517Z,9.90
2022-09-07T16:08:58.436Z,8.82
2022-09-07T16:11:26.932Z,8.30
2022-09-07T16:14:01.803Z,8.10
2022-09-07T16:19:20.638Z,8.02
2022-09-07T16:21:47.863Z,7.82
2022-09-07T16:24:14.751Z,7.78
2022-09-07T16:26:41.643Z,7.70
2022-09-07T16:29:08.523Z,7.87
2022-09-07T16:31:35.664Z,7.80
2022-09-07T16:34:03.868Z,7.90
2022-09-07T16:36:30.799Z,8.25
2022-09-07T16:38:59.870Z,9.25
2022-09-07T16:41:29.430Z,8.10
2022-09-07T16:43:56.610Z,7.70
2022-09-07T16:46:27.178Z,8.18
2022-09-07T16:48:54.751Z,8.05
2022-09-07T16:51:23.095Z,8.20
2022-09-07T16:53:51.879Z,7.20
2022-09-07T16:56:21.128Z,6.93
2022-09-07T16:58:51.262Z,6.80
2022-09-07T17:01:20.545Z,6.65
2022-09-07T17:03:49.718Z,6.75
2022-09-07T17:06:18.024Z,6.93
2022-09-07T17:08:45.244Z,7.60
2022-09-07T17:11:15.937Z,7.30
2022-09-07T17:13:43.690Z,7.12
2022-09-07T17:16:16.042Z,6.80
2022-09-07T17:21:33.252Z,7.90
2022-09-07T17:24:08.536Z,7.80
2022-09-07T17:26:35.526Z,7.57
2022-09-07T17:29:02.666Z,8.05
2022-09-07T17:34:21.159Z,8.25
2022-09-07T17:36:48.268Z,7.10
2022-09-07T17:39:17.795Z,7.40
2022-09-07T17:41:46.111Z,7.35
2022-09-07T17:44:15.243Z,7.32
2022-09-07T17:46:42.173Z,7.43
2022-09-07T17:49:12.436Z,7.00
2022-09-07T17:51:39.917Z,7.43
2022-09-07T17:54:11.659Z,7.40
2022-09-07T17:56:39.655Z,7.75
2022-09-07T18:04:30.144Z,7.53
2022-09-07T18:06:57.039Z,7.87
2022-09-07T18:09:24.231Z,7.93
2022-09-07T18:11:51.276Z,7.80
2022-09-07T18:14:19.019Z,8.50
2022-09-07T18:16:48.812Z,6.60
2022-09-07T18:19:15.987Z,8.85
2022-09-07T18:21:43.751Z,8.38
2022-09-07T18:24:18.680Z,9.60
2022-09-07T18:26:50.600Z,9.38
2022-09-07T18:29:36.862Z,10.15
2022-09-07T18:32:08.687Z,10.18
2022-09-07T18:34:36.963Z,10.90
2022-09-07T18:37:04.755Z,10.45
2022-09-07T18:39:32.537Z,10.40
2022-09-07T18:41:59.484Z,10.73
2022-09-07T18:47:22.246Z,10.93
2022-09-07T18:49:51.567Z,10.52
2022-09-07T18:55:16.703Z,10.52
2022-09-07T18:57:43.619Z,10.40
2022-09-07T19:00:11.851Z,10.13
2022-09-07T19:02:38.949Z,9.98
2022-09-07T19:08:02.771Z,11.05
2022-09-07T19:10:34.207Z,10.95
2022-09-07T19:13:01.060Z,10.45
2022-09-07T19:15:37.339Z,10.27
2022-09-07T19:18:05.858Z,10.23
2022-09-07T19:20:34.064Z,10.25
2022-09-07T19:23:00.955Z,10.40
2022-09-07T19:25:27.800Z,10.88
2022-09-07T19:27:54.862Z,10.90
2022-09-07T19:30:21.722Z,9.45
2022-09-07T19:32:48.586Z,10.93
2022-09-07T19:35:28.885Z,10.25
2022-09-07T19:37:56.029Z,9.90
2022-09-07T19:40:22.917Z,11.27
2022-09-07T19:42:49.821Z,11.48
2022-09-07T19:45:17.738Z,11.63
2022-09-07T19:47:45.013Z,11.73
2022-09-07T19:50:11.883Z,11.35
2022-09-07T19:52:38.995Z,10.40
2022-09-07T19:55:11.856Z,10.50
2022-09-07T19:57:38.721Z,11.57
2022-09-07T20:00:06.340Z,11.30
2022-09-07T20:02:33.466Z,11.95
2022-09-07T20:05:00.334Z,11.18
2022-09-07T20:07:27.235Z,11.18
2022-09-07T20:09:54.168Z,11.43
2022-09-07T20:12:21.008Z,11.45
2022-09-07T20:14:50.810Z,11.00
2022-09-07T20:17:17.709Z,11.55
2022-09-07T20:19:44.568Z,11.05
2022-09-07T20:22:11.400Z,10.80
2022-09-07T20:24:38.902Z,10.57
2022-09-07T20:27:05.815Z,11.10
2022-09-07T20:29:32.715Z,11.35
2022-09-07T20:32:00.558Z,10.05
2022-09-07T20:34:28.635Z,10.77
2022-09-07T20:36:56.772Z,10.60
2022-09-07T20:39:23.805Z,10.63
2022-09-07T20:41:50.849Z,11.50
2022-09-07T20:44:29.809Z,11.00
2022-09-07T20:46:56.698Z,11.27
2022-09-07T20:49:23.613Z,12.43
2022-09-07T20:51:50.858Z,11.40
2022-09-07T20:54:18.845Z,11.88
2022-09-07T20:56:45.698Z,11.18
2022-09-07T20:59:12.534Z,11.68
2022-09-07T21:01:39.531Z,11.82
2022-09-07T21:04:08.467Z,11.80
2022-09-07T21:06:35.460Z,11.95
2022-09-07T21:09:02.368Z,12.35
2022-09-07T21:11:34.451Z,12.55
2022-09-07T21:14:07.464Z,12.57
2022-09-07T21:16:35.616Z,12.57
2022-09-07T21:19:04.133Z,12.48
2022-09-07T21:21:38.701Z,12.80
2022-09-07T21:24:07.112Z,15.68
2022-09-07T21:26:34.027Z,14.60
2022-09-07T21:29:03.946Z,13.35
2022-09-07T21:31:32.641Z,13.40
2022-09-07T21:34:01.386Z,12.02
2022-09-07T21:36:28.602Z,13.50
2022-09-07T21:38:56.004Z,13.07
2022-09-07T21:41:24.790Z,12.73
2022-09-07T21:44:00.799Z,12.32
2022-09-07T21:46:29.276Z,13.05
2022-09-07T21:48:57.514Z,12.88
2022-09-07T21:51:25.646Z,12.37
2022-09-07T21:53:56.117Z,12.60
2022-09-07T21:56:23.481Z,13.40
2022-09-07T21:58:55.375Z,13.73
2022-09-07T22:01:23.299Z,13.57
2022-09-07T22:04:04.642Z,12.90
2022-09-07T22:06:32.587Z,13.20
2022-09-07T22:09:00.209Z,13.07
2022-09-07T22:11:28.383Z,13.75
2022-09-07T22:13:58.386Z,13.95
2022-09-07T22:16:25.607Z,13.62
2022-09-07T22:18:52.683Z,13.50
2022-09-07T22:21:27.021Z,13.05
2022-09-07T22:24:00.804Z,13.20
2022-09-07T22:26:29.684Z,12.88
2022-09-07T22:28:56.843Z,12.82
2022-09-07T22:31:31.977Z,12.52
2022-09-07T22:34:06.339Z,13.15
2022-09-07T22:36:38.675Z,12.90
2022-09-07T22:39:08.976Z,12.82
2022-09-07T22:41:38.341Z,13.00
2022-09-07T22:44:08.410Z,11.93
2022-09-07T22:46:37.411Z,12.95
2022-09-07T22:49:05.845Z,12.82
2022-09-07T22:51:32.951Z,12.85
2022-09-07T22:54:00.951Z,13.50
2022-09-07T22:56:32.570Z,12.90
2022-09-07T22:59:02.082Z,13.85
2022-09-07T23:01:30.160Z,13.15
2022-09-07T23:04:00.777Z,12.82
2022-09-07T23:06:34.052Z,12.85
2022-09-07T23:09:04.226Z,12.80
2022-09-07T23:11:31.110Z,12.90
2022-09-07T23:14:00.588Z,14.13
2022-09-07T23:16:28.292Z,13.62
2022-09-07T23:18:56.404Z,13.82
2022-09-07T23:21:23.317Z,12.30
2022-09-07T23:24:01.519Z,13.10
2022-09-07T23:26:30.617Z,13.27
2022-09-07T23:29:02.516Z,13.48
2022-09-07T23:31:31.112Z,13.13
2022-09-07T23:34:04.308Z,13.32
2022-09-07T23:36:31.231Z,13.15
2022-09-07T23:38:59.738Z,13.73
2022-09-07T23:41:27.134Z,13.65
2022-09-07T23:43:57.371Z,12.90
2022-09-07T23:46:24.666Z,13.57
2022-09-07T23:48:51.891Z,13.93
2022-09-07T23:51:23.535Z,13.65
2022-09-07T23:53:51.271Z,13.82
2022-09-07T23:56:18.133Z,13.77
2022-09-07T23:58:45.231Z,13.50
